PWSweather.com
Personal Weather Stations
Station Observations
ARECO747
Argentina , San Antonio ArecoAR Bs.As

Argentina San Antonio ArecoAR Bs.As

Lat: -34.24447275818, Lon: -59.47654187679

Elevation: 102

Station Type: InformaciĆ³n generada con nuevo Microchip Ethernet conectado a estaciĆ³n WH1081

http://www.meteostar.com.ar

High Low Average
Temperature 75.2°F24.0°C 62.2°F16.8°C 69.0°F20.6°C
Dew Point 60.4°F15.8°C 49.1°F9.5°C 53.3°F11.8°C
Winds 17.4 mph 28.0 kmh Calm Calm 7.0 mph SE11.3 kmh SE
Wind Gusts 27.3 mph43.9 kmh -- 13.0 mph20.9 kmh
Humidity 71% 46% 58%
Pressure 30.15 in1021.0 mb 29.84 in1010.5 mb -
Precipitation 0.00 in0.0 mm - -
Hour Temp Dew Point Humidity Winds Wind Gusts Pressure Precip Precip Rate Daily Precip Total
12:00 AM 70.2°F21.2°C 59.5°F15.3°C 69% 0.7 mph S1.1 kmh S 1.6 mph2.6 kmh 29.84 in1010.5 mb 0.00 in0.0 mm 0.00 in0.0 mm 0.00 in0.0 mm
12:05 AM 69.8°F21.0°C 59.2°F15.1°C 69% Calm Calm 2.2 mph3.5 kmh 29.85 in1010.8 mb 0.00 in0.0 mm 0.00 in0.0 mm 0.00 in0.0 mm
12:10 AM 69.4°F20.8°C 59.5°F15.3°C 71% Calm Calm 0.7 mph1.1 kmh 29.84 in1010.5 mb 0.00 in0.0 mm 0.00 in0.0 mm 0.00 in0.0 mm
12:15 AM 69.6°F20.9°C 59.7°F15.4°C 71% Calm Calm 0.7 mph1.1 kmh 29.84 in1010.5 mb 0.00 in0.0 mm 0.00 in0.0 mm 0.00 in0.0 mm
12:21 AM 69.6°F20.9°C 59.7°F15.4°C 71% Calm Calm 0.7 mph1.1 kmh 29.84 in1010.5 mb 0.00 in0.0 mm 0.00 in0.0 mm 0.00 in0.0 mm
12:26 AM 69.4°F20.8°C 59.5°F15.3°C 71% Calm Calm -- 29.84 in1010.5 mb 0.00 in0.0 mm 0.00 in0.0 mm 0.00 in0.0 mm
12:31 AM 69.6°F20.9°C 59.7°F15.4°C 71% Calm Calm 0.7 mph1.1 kmh 29.84 in1010.5 mb 0.00 in0.0 mm 0.00 in0.0 mm 0.00 in0.0 mm
12:36 AM 69.4°F20.8°C 59.5°F15.3°C 71% Calm Calm 0.7 mph1.1 kmh 29.85 in1010.8 mb 0.00 in0.0 mm 0.00 in0.0 mm 0.00 in0.0 mm
12:41 AM 69.4°F20.8°C 59.5°F15.3°C 71% Calm Calm -- 29.85 in1010.8 mb 0.00 in0.0 mm 0.00 in0.0 mm 0.00 in0.0 mm
12:46 AM 69.6°F20.9°C 59.7°F15.4°C 71% Calm Calm -- 29.85 in1010.8 mb 0.00 in0.0 mm 0.00 in0.0 mm 0.00 in0.0 mm
12:52 AM 69.8°F21.0°C 59.5°F15.3°C 70% Calm Calm -- 29.85 in1010.8 mb 0.00 in0.0 mm 0.00 in0.0 mm 0.00 in0.0 mm
12:57 AM 70.2°F21.2°C 59.9°F15.5°C 70% Calm Calm 1.6 mph2.6 kmh 29.84 in1010.5 mb 0.00 in0.0 mm 0.00 in0.0 mm 0.00 in0.0 mm
01:02 AM 70.7°F21.5°C 60.4°F15.8°C 70% 1.6 mph E2.6 kmh E 3.1 mph5.0 kmh 29.85 in1010.8 mb 0.00 in0.0 mm 0.00 in0.0 mm 0.00 in0.0 mm
01:07 AM 70.5°F21.4°C 60.3°F15.7°C 70% 0.7 mph SE1.1 kmh SE 3.1 mph5.0 kmh 29.85 in1010.8 mb 0.00 in0.0 mm 0.00 in0.0 mm 0.00 in0.0 mm
01:12 AM 70.3°F21.3°C 60.1°F15.6°C 70% 0.7 mph SSE1.1 kmh SSE 2.2 mph3.5 kmh 29.85 in1010.8 mb 0.00 in0.0 mm 0.00 in0.0 mm 0.00 in0.0 mm
01:17 AM 70.2°F21.2°C 59.9°F15.5°C 70% Calm Calm 2.2 mph3.5 kmh 29.85 in1010.8 mb 0.00 in0.0 mm 0.00 in0.0 mm 0.00 in0.0 mm
01:23 AM 69.8°F21.0°C 59.2°F15.1°C 69% 0.7 mph SSW1.1 kmh SSW 3.8 mph6.1 kmh 29.84 in1010.5 mb 0.00 in0.0 mm 0.00 in0.0 mm 0.00 in0.0 mm
01:28 AM 69.6°F20.9°C 59.4°F15.2°C 70% 1.6 mph SE2.6 kmh SE 3.1 mph5.0 kmh 29.84 in1010.5 mb 0.00 in0.0 mm 0.00 in0.0 mm 0.00 in0.0 mm
01:33 AM 69.6°F20.9°C 59.4°F15.2°C 70% 0.7 mph E1.1 kmh E 3.1 mph5.0 kmh 29.84 in1010.5 mb 0.00 in0.0 mm 0.00 in0.0 mm 0.00 in0.0 mm
01:38 AM 69.4°F20.8°C 59.2°F15.1°C 70% 2.2 mph S3.5 kmh S 4.5 mph7.2 kmh 29.84 in1010.5 mb 0.00 in0.0 mm 0.00 in0.0 mm 0.00 in0.0 mm
01:43 AM 69.4°F20.8°C 59.2°F15.1°C 70% 1.6 mph SSE2.6 kmh SSE 4.5 mph7.2 kmh 29.85 in1010.8 mb 0.00 in0.0 mm 0.00 in0.0 mm 0.00 in0.0 mm
01:48 AM 69.4°F20.8°C 59.2°F15.1°C 70% 1.6 mph SE2.6 kmh SE 4.5 mph7.2 kmh 29.85 in1010.8 mb 0.00 in0.0 mm 0.00 in0.0 mm 0.00 in0.0 mm
01:54 AM 69.4°F20.8°C 59.2°F15.1°C 70% 0.7 mph S1.1 kmh S 3.1 mph5.0 kmh 29.85 in1010.8 mb 0.00 in0.0 mm 0.00 in0.0 mm 0.00 in0.0 mm
01:59 AM 69.4°F20.8°C 59.2°F15.1°C 70% Calm Calm 2.2 mph3.5 kmh 29.85 in1010.8 mb 0.00 in0.0 mm 0.00 in0.0 mm 0.00 in0.0 mm
02:05 AM 69.4°F20.8°C 59.2°F15.1°C 70% Calm Calm 0.7 mph1.1 kmh 29.85 in1010.8 mb 0.00 in0.0 mm 0.00 in0.0 mm 0.00 in0.0 mm
02:10 AM 69.4°F20.8°C 59.2°F15.1°C 70% 0.7 mph SSE1.1 kmh SSE 3.1 mph5.0 kmh 29.85 in1010.8 mb 0.00 in0.0 mm 0.00 in0.0 mm 0.00 in0.0 mm
02:15 AM 69.4°F20.8°C 59.2°F15.1°C 70% 2.2 mph E3.5 kmh E 4.5 mph7.2 kmh 29.85 in1010.8 mb 0.00 in0.0 mm 0.00 in0.0 mm 0.00 in0.0 mm
02:20 AM 69.4°F20.8°C 59.2°F15.1°C 70% 2.2 mph SE3.5 kmh SE 5.4 mph8.7 kmh 29.85 in1010.8 mb 0.00 in0.0 mm 0.00 in0.0 mm 0.00 in0.0 mm
02:25 AM 69.4°F20.8°C 59.2°F15.1°C 70% 1.6 mph E2.6 kmh E 3.8 mph6.1 kmh 29.85 in1010.8 mb 0.00 in0.0 mm 0.00 in0.0 mm 0.00 in0.0 mm
02:30 AM 69.4°F20.8°C 59.2°F15.1°C 70% 0.7 mph S1.1 kmh S 3.8 mph6.1 kmh 29.86 in1011.2 mb 0.00 in0.0 mm 0.00 in0.0 mm 0.00 in0.0 mm
02:36 AM 69.4°F20.8°C 59.2°F15.1°C 70% 6.9 mph S11.1 kmh S 9.2 mph14.8 kmh 29.87 in1011.5 mb 0.00 in0.0 mm 0.00 in0.0 mm 0.00 in0.0 mm
02:41 AM 69.4°F20.8°C 59.2°F15.1°C 70% 6.9 mph S11.1 kmh S 13.0 mph20.9 kmh 29.88 in1011.9 mb 0.00 in0.0 mm 0.00 in0.0 mm 0.00 in0.0 mm
02:46 AM 69.4°F20.8°C 58.8°F14.9°C 69% 4.5 mph SE7.2 kmh SE 7.6 mph12.2 kmh 29.88 in1011.9 mb 0.00 in0.0 mm 0.00 in0.0 mm 0.00 in0.0 mm
02:51 AM 69.6°F20.9°C 59.0°F15.0°C 69% 7.6 mph S12.2 kmh S 14.5 mph23.3 kmh 29.88 in1011.9 mb 0.00 in0.0 mm 0.00 in0.0 mm 0.00 in0.0 mm
02:56 AM 69.8°F21.0°C 58.3°F14.6°C 67% 9.2 mph S14.8 kmh S 13.6 mph21.9 kmh 29.89 in1012.2 mb 0.00 in0.0 mm 0.00 in0.0 mm 0.00 in0.0 mm
03:01 AM 69.6°F20.9°C 58.6°F14.8°C 68% 6.0 mph S9.7 kmh S 13.6 mph21.9 kmh 29.90 in1012.5 mb 0.00 in0.0 mm 0.00 in0.0 mm 0.00 in0.0 mm
03:07 AM 69.6°F20.9°C 58.1°F14.5°C 67% 3.8 mph SE6.1 kmh SE 11.4 mph18.3 kmh 29.90 in1012.5 mb 0.00 in0.0 mm 0.00 in0.0 mm 0.00 in0.0 mm
03:12 AM 69.6°F20.9°C 57.7°F14.3°C 66% 8.3 mph SE13.4 kmh SE 13.0 mph20.9 kmh 29.90 in1012.5 mb 0.00 in0.0 mm 0.00 in0.0 mm 0.00 in0.0 mm
03:17 AM 69.6°F20.9°C 56.8°F13.8°C 64% 6.0 mph SE9.7 kmh SE 13.6 mph21.9 kmh 29.91 in1012.9 mb 0.00 in0.0 mm 0.00 in0.0 mm 0.00 in0.0 mm
03:22 AM 69.8°F21.0°C 55.8°F13.2°C 61% 7.6 mph E12.2 kmh E 13.0 mph20.9 kmh 29.91 in1012.9 mb 0.00 in0.0 mm 0.00 in0.0 mm 0.00 in0.0 mm
03:27 AM 69.6°F20.9°C 55.6°F13.1°C 61% 9.8 mph SE15.8 kmh SE 13.0 mph20.9 kmh 29.92 in1013.2 mb 0.00 in0.0 mm 0.00 in0.0 mm 0.00 in0.0 mm
03:32 AM 69.4°F20.8°C 55.4°F13.0°C 61% 8.3 mph S13.4 kmh S 17.4 mph28.0 kmh 29.92 in1013.2 mb 0.00 in0.0 mm 0.00 in0.0 mm 0.00 in0.0 mm
03:38 AM 68.9°F20.5°C 54.9°F12.7°C 61% 4.5 mph SW7.2 kmh SW 15.9 mph25.6 kmh 29.92 in1013.2 mb 0.00 in0.0 mm 0.00 in0.0 mm 0.00 in0.0 mm
03:43 AM 68.9°F20.5°C 54.9°F12.7°C 61% 5.4 mph E8.7 kmh E 16.8 mph27.0 kmh 29.91 in1012.9 mb 0.00 in0.0 mm 0.00 in0.0 mm 0.00 in0.0 mm
03:48 AM 68.7°F20.4°C 55.2°F12.9°C 62% 7.6 mph S12.2 kmh S 14.5 mph23.3 kmh 29.92 in1013.2 mb 0.00 in0.0 mm 0.00 in0.0 mm 0.00 in0.0 mm
03:53 AM 68.5°F20.3°C 55.4°F13.0°C 63% 10.7 mph S17.2 kmh S 17.4 mph28.0 kmh 29.92 in1013.2 mb 0.00 in0.0 mm 0.00 in0.0 mm 0.00 in0.0 mm
03:58 AM 68.2°F20.1°C 55.6°F13.1°C 64% 11.4 mph SE18.3 kmh SE 17.4 mph28.0 kmh 29.92 in1013.2 mb 0.00 in0.0 mm 0.00 in0.0 mm 0.00 in0.0 mm
04:04 AM 68.0°F20.0°C 55.8°F13.2°C 65% 6.9 mph SE11.1 kmh SE 17.4 mph28.0 kmh 29.93 in1013.5 mb 0.00 in0.0 mm 0.00 in0.0 mm 0.00 in0.0 mm
04:09 AM 67.8°F19.9°C 56.5°F13.6°C 67% 8.3 mph SE13.4 kmh SE 17.4 mph28.0 kmh 29.93 in1013.5 mb 0.00 in0.0 mm 0.00 in0.0 mm 0.00 in0.0 mm
04:14 AM 67.6°F19.8°C 56.7°F13.7°C 68% 7.6 mph SE12.2 kmh SE 18.3 mph29.5 kmh 29.93 in1013.5 mb 0.00 in0.0 mm 0.00 in0.0 mm 0.00 in0.0 mm
04:19 AM 67.3°F19.6°C 54.7°F12.6°C 64% 9.2 mph SW14.8 kmh SW 21.3 mph34.3 kmh 29.93 in1013.5 mb 0.00 in0.0 mm 0.00 in0.0 mm 0.00 in0.0 mm
04:24 AM 66.9°F19.4°C 53.1°F11.7°C 61% 10.7 mph S17.2 kmh S 23.5 mph37.8 kmh 29.93 in1013.5 mb 0.00 in0.0 mm 0.00 in0.0 mm 0.00 in0.0 mm
04:29 AM 66.7°F19.3°C 52.9°F11.6°C 61% 9.2 mph SE14.8 kmh SE 22.8 mph36.7 kmh 29.93 in1013.5 mb 0.00 in0.0 mm 0.00 in0.0 mm 0.00 in0.0 mm
04:35 AM 66.4°F19.1°C 52.5°F11.4°C 61% 11.4 mph S18.3 kmh S 17.4 mph28.0 kmh 29.93 in1013.5 mb 0.00 in0.0 mm 0.00 in0.0 mm 0.00 in0.0 mm
04:40 AM 66.2°F19.0°C 52.9°F11.6°C 62% 9.8 mph SE15.8 kmh SE 20.6 mph33.2 kmh 29.94 in1013.9 mb 0.00 in0.0 mm 0.00 in0.0 mm 0.00 in0.0 mm
04:45 AM 65.8°F18.8°C 52.9°F11.6°C 63% 11.4 mph SSE18.3 kmh SSE 20.6 mph33.2 kmh 29.94 in1013.9 mb 0.00 in0.0 mm 0.00 in0.0 mm 0.00 in0.0 mm
04:50 AM 65.7°F18.7°C 52.7°F11.5°C 63% 9.2 mph SE14.8 kmh SE 17.4 mph28.0 kmh 29.94 in1013.9 mb 0.00 in0.0 mm 0.00 in0.0 mm 0.00 in0.0 mm
04:55 AM 65.3°F18.5°C 52.3°F11.3°C 63% 9.2 mph SE14.8 kmh SE 19.7 mph31.7 kmh 29.94 in1013.9 mb 0.00 in0.0 mm 0.00 in0.0 mm 0.00 in0.0 mm
05:00 AM 65.1°F18.4°C 52.7°F11.5°C 64% 11.4 mph SE18.3 kmh SE 15.2 mph24.5 kmh 29.94 in1013.9 mb 0.00 in0.0 mm 0.00 in0.0 mm 0.00 in0.0 mm
05:06 AM 64.9°F18.3°C 52.5°F11.4°C 64% 7.6 mph S12.2 kmh S 15.9 mph25.6 kmh 29.95 in1014.2 mb 0.00 in0.0 mm 0.00 in0.0 mm 0.00 in0.0 mm
05:11 AM 64.8°F18.2°C 52.3°F11.3°C 64% 6.0 mph SE9.7 kmh SE 19.7 mph31.7 kmh 29.94 in1013.9 mb 0.00 in0.0 mm 0.00 in0.0 mm 0.00 in0.0 mm
05:16 AM 64.6°F18.1°C 52.2°F11.2°C 64% 9.2 mph SE14.8 kmh SE 17.4 mph28.0 kmh 29.94 in1013.9 mb 0.00 in0.0 mm 0.00 in0.0 mm 0.00 in0.0 mm
05:21 AM 64.4°F18.0°C 52.0°F11.1°C 64% 9.2 mph E14.8 kmh E 15.9 mph25.6 kmh 29.94 in1013.9 mb 0.00 in0.0 mm 0.00 in0.0 mm 0.00 in0.0 mm
05:26 AM 64.2°F17.9°C 52.2°F11.2°C 65% 13.0 mph S20.9 kmh S 19.0 mph30.6 kmh 29.95 in1014.2 mb 0.00 in0.0 mm 0.00 in0.0 mm 0.00 in0.0 mm
05:31 AM 64.2°F17.9°C 52.7°F11.5°C 66% 8.3 mph SE13.4 kmh SE 19.0 mph30.6 kmh 29.95 in1014.2 mb 0.00 in0.0 mm 0.00 in0.0 mm 0.00 in0.0 mm
05:37 AM 64.0°F17.8°C 52.5°F11.4°C 66% 7.6 mph SE12.2 kmh SE 14.5 mph23.3 kmh 29.95 in1014.2 mb 0.00 in0.0 mm 0.00 in0.0 mm 0.00 in0.0 mm
05:42 AM 63.9°F17.7°C 52.3°F11.3°C 66% 9.8 mph SW15.8 kmh SW 13.0 mph20.9 kmh 29.96 in1014.6 mb 0.00 in0.0 mm 0.00 in0.0 mm 0.00 in0.0 mm
05:47 AM 63.9°F17.7°C 52.3°F11.3°C 66% 9.8 mph SE15.8 kmh SE 13.0 mph20.9 kmh 29.96 in1014.6 mb 0.00 in0.0 mm 0.00 in0.0 mm 0.00 in0.0 mm
05:52 AM 63.7°F17.6°C 52.2°F11.2°C 66% 4.5 mph SE7.2 kmh SE 15.9 mph25.6 kmh 29.96 in1014.6 mb 0.00 in0.0 mm 0.00 in0.0 mm 0.00 in0.0 mm
05:57 AM 63.7°F17.6°C 52.2°F11.2°C 66% 6.0 mph E9.7 kmh E 13.0 mph20.9 kmh 29.96 in1014.6 mb 0.00 in0.0 mm 0.00 in0.0 mm 0.00 in0.0 mm
06:02 AM 63.7°F17.6°C 52.2°F11.2°C 66% 6.9 mph E11.1 kmh E 12.1 mph19.5 kmh 29.96 in1014.6 mb 0.00 in0.0 mm 0.00 in0.0 mm 0.00 in0.0 mm
06:08 AM 63.5°F17.5°C 52.3°F11.3°C 67% 8.3 mph S13.4 kmh S 12.1 mph19.5 kmh 29.97 in1014.9 mb 0.00 in0.0 mm 0.00 in0.0 mm 0.00 in0.0 mm
06:13 AM 63.5°F17.5°C 52.3°F11.3°C 67% 4.5 mph E7.2 kmh E 9.8 mph15.8 kmh 29.98 in1015.2 mb 0.00 in0.0 mm 0.00 in0.0 mm 0.00 in0.0 mm
06:18 AM 63.7°F17.6°C 52.5°F11.4°C 67% 6.0 mph SE9.7 kmh SE 9.2 mph14.8 kmh 29.98 in1015.2 mb 0.00 in0.0 mm 0.00 in0.0 mm 0.00 in0.0 mm
06:23 AM 63.7°F17.6°C 52.5°F11.4°C 67% 4.5 mph E7.2 kmh E 10.7 mph17.2 kmh 29.98 in1015.2 mb 0.00 in0.0 mm 0.00 in0.0 mm 0.00 in0.0 mm
06:28 AM 63.7°F17.6°C 52.5°F11.4°C 67% 6.0 mph E9.7 kmh E 13.6 mph21.9 kmh 29.98 in1015.2 mb 0.00 in0.0 mm 0.00 in0.0 mm 0.00 in0.0 mm
06:33 AM 63.7°F17.6°C 52.2°F11.2°C 66% 5.4 mph SE8.7 kmh SE 14.5 mph23.3 kmh 29.98 in1015.2 mb 0.00 in0.0 mm 0.00 in0.0 mm 0.00 in0.0 mm
06:39 AM 63.7°F17.6°C 52.2°F11.2°C 66% 6.0 mph NE9.7 kmh NE 11.4 mph18.3 kmh 29.99 in1015.6 mb 0.00 in0.0 mm 0.00 in0.0 mm 0.00 in0.0 mm
06:44 AM 63.9°F17.7°C 52.3°F11.3°C 66% 6.0 mph E9.7 kmh E 10.7 mph17.2 kmh 29.98 in1015.2 mb 0.00 in0.0 mm 0.00 in0.0 mm 0.00 in0.0 mm
06:49 AM 63.9°F17.7°C 52.3°F11.3°C 66% 4.5 mph S7.2 kmh S 12.1 mph19.5 kmh 29.98 in1015.2 mb 0.00 in0.0 mm 0.00 in0.0 mm 0.00 in0.0 mm
06:54 AM 64.0°F17.8°C 52.5°F11.4°C 66% 4.5 mph E7.2 kmh E 13.0 mph20.9 kmh 29.98 in1015.2 mb 0.00 in0.0 mm 0.00 in0.0 mm 0.00 in0.0 mm
06:59 AM 64.4°F18.0°C 52.3°F11.3°C 65% 7.6 mph SE12.2 kmh SE 11.4 mph18.3 kmh 29.97 in1014.9 mb 0.00 in0.0 mm 0.00 in0.0 mm 0.00 in0.0 mm
07:04 AM 64.8°F18.2°C 52.3°F11.3°C 64% 6.9 mph ESE11.1 kmh ESE 13.0 mph20.9 kmh 29.97 in1014.9 mb 0.00 in0.0 mm 0.00 in0.0 mm 0.00 in0.0 mm
07:10 AM 64.8°F18.2°C 52.3°F11.3°C 64% 9.2 mph SE14.8 kmh SE 15.2 mph24.5 kmh 29.97 in1014.9 mb 0.00 in0.0 mm 0.00 in0.0 mm 0.00 in0.0 mm
07:15 AM 64.6°F18.1°C 52.2°F11.2°C 64% 6.0 mph SE9.7 kmh SE 13.0 mph20.9 kmh 29.99 in1015.6 mb 0.00 in0.0 mm 0.00 in0.0 mm 0.00 in0.0 mm
07:20 AM 64.6°F18.1°C 52.5°F11.4°C 65% 3.8 mph SE6.1 kmh SE 13.6 mph21.9 kmh 30.00 in1015.9 mb 0.00 in0.0 mm 0.00 in0.0 mm 0.00 in0.0 mm
07:25 AM 64.8°F18.2°C 52.3°F11.3°C 64% 6.0 mph SE9.7 kmh SE 12.1 mph19.5 kmh 29.99 in1015.6 mb 0.00 in0.0 mm 0.00 in0.0 mm 0.00 in0.0 mm
07:30 AM 64.8°F18.2°C 52.7°F11.5°C 65% 6.0 mph S9.7 kmh S 15.2 mph24.5 kmh 30.00 in1015.9 mb 0.00 in0.0 mm 0.00 in0.0 mm 0.00 in0.0 mm
07:35 AM 65.1°F18.4°C 53.1°F11.7°C 65% 9.2 mph WNW14.8 kmh WNW 14.5 mph23.3 kmh 30.00 in1015.9 mb 0.00 in0.0 mm 0.00 in0.0 mm 0.00 in0.0 mm
07:41 AM 65.1°F18.4°C 52.7°F11.5°C 64% 6.0 mph SE9.7 kmh SE 13.6 mph21.9 kmh 30.00 in1015.9 mb 0.00 in0.0 mm 0.00 in0.0 mm 0.00 in0.0 mm
07:46 AM 64.9°F18.3°C 52.5°F11.4°C 64% 6.0 mph S9.7 kmh S 15.2 mph24.5 kmh 30.01 in1016.3 mb 0.00 in0.0 mm 0.00 in0.0 mm 0.00 in0.0 mm
07:51 AM 65.5°F18.6°C 53.1°F11.7°C 64% 9.2 mph ESE14.8 kmh ESE 15.2 mph24.5 kmh 30.01 in1016.3 mb 0.00 in0.0 mm 0.00 in0.0 mm 0.00 in0.0 mm
07:56 AM 65.3°F18.5°C 52.9°F11.6°C 64% 17.4 mph SE28.0 kmh SE 25.9 mph41.7 kmh 30.01 in1016.3 mb 0.00 in0.0 mm 0.00 in0.0 mm 0.00 in0.0 mm
08:01 AM 65.3°F18.5°C 52.0°F11.1°C 62% 6.9 mph SE11.1 kmh SE 25.9 mph41.7 kmh 30.01 in1016.3 mb 0.00 in0.0 mm 0.00 in0.0 mm 0.00 in0.0 mm
08:06 AM 66.4°F19.1°C 52.5°F11.4°C 61% 11.4 mph S18.3 kmh S 22.1 mph35.6 kmh 30.02 in1016.6 mb 0.00 in0.0 mm 0.00 in0.0 mm 0.00 in0.0 mm
08:12 AM 66.6°F19.2°C 52.7°F11.5°C 61% 9.8 mph SE15.8 kmh SE 22.1 mph35.6 kmh 30.03 in1016.9 mb 0.00 in0.0 mm 0.00 in0.0 mm 0.00 in0.0 mm
08:17 AM 66.2°F19.0°C 52.3°F11.3°C 61% 9.8 mph SE15.8 kmh SE 19.7 mph31.7 kmh 30.03 in1016.9 mb 0.00 in0.0 mm 0.00 in0.0 mm 0.00 in0.0 mm
08:22 AM 66.2°F19.0°C 52.3°F11.3°C 61% 9.8 mph E15.8 kmh E 19.0 mph30.6 kmh 30.04 in1017.3 mb 0.00 in0.0 mm 0.00 in0.0 mm 0.00 in0.0 mm
08:27 AM 66.0°F18.9°C 52.7°F11.5°C 62% 6.9 mph S11.1 kmh S 19.7 mph31.7 kmh 30.03 in1016.9 mb 0.00 in0.0 mm 0.00 in0.0 mm 0.00 in0.0 mm
08:32 AM 66.7°F19.3°C 52.9°F11.6°C 61% 6.0 mph SW9.7 kmh SW 20.6 mph33.2 kmh 30.02 in1016.6 mb 0.00 in0.0 mm 0.00 in0.0 mm 0.00 in0.0 mm
08:37 AM 66.7°F19.3°C 52.3°F11.3°C 60% 6.9 mph W11.1 kmh W 16.8 mph27.0 kmh 30.02 in1016.6 mb 0.00 in0.0 mm 0.00 in0.0 mm 0.00 in0.0 mm
08:43 AM 67.3°F19.6°C 52.9°F11.6°C 60% 8.3 mph ESE13.4 kmh ESE 18.3 mph29.5 kmh 30.02 in1016.6 mb 0.00 in0.0 mm 0.00 in0.0 mm 0.00 in0.0 mm
08:48 AM 68.0°F20.0°C 53.1°F11.7°C 59% 6.9 mph SE11.1 kmh SE 20.6 mph33.2 kmh 30.02 in1016.6 mb 0.00 in0.0 mm 0.00 in0.0 mm 0.00 in0.0 mm
08:53 AM 68.2°F20.1°C 53.2°F11.8°C 59% 9.8 mph SE15.8 kmh SE 23.5 mph37.8 kmh 30.01 in1016.3 mb 0.00 in0.0 mm 0.00 in0.0 mm 0.00 in0.0 mm
08:58 AM 68.5°F20.3°C 53.6°F12.0°C 59% 6.9 mph SE11.1 kmh SE 18.3 mph29.5 kmh 30.02 in1016.6 mb 0.00 in0.0 mm 0.00 in0.0 mm 0.00 in0.0 mm
09:08 AM 68.9°F20.5°C 53.6°F12.0°C 58% 9.8 mph S15.8 kmh S 18.3 mph29.5 kmh 30.02 in1016.6 mb 0.00 in0.0 mm 0.00 in0.0 mm 0.00 in0.0 mm
09:14 AM 68.7°F20.4°C 53.4°F11.9°C 58% 7.6 mph SE12.2 kmh SE 16.8 mph27.0 kmh 30.03 in1016.9 mb 0.00 in0.0 mm 0.00 in0.0 mm 0.00 in0.0 mm
09:19 AM 69.4°F20.8°C 53.6°F12.0°C 57% 8.3 mph SE13.4 kmh SE 19.0 mph30.6 kmh 30.02 in1016.6 mb 0.00 in0.0 mm 0.00 in0.0 mm 0.00 in0.0 mm
09:24 AM 70.3°F21.3°C 53.4°F11.9°C 55% 13.0 mph SE20.9 kmh SE 18.3 mph29.5 kmh 30.02 in1016.6 mb 0.00 in0.0 mm 0.00 in0.0 mm 0.00 in0.0 mm
09:29 AM 69.6°F20.9°C 53.2°F11.8°C 56% 12.1 mph E19.5 kmh E 22.1 mph35.6 kmh 30.01 in1016.3 mb 0.00 in0.0 mm 0.00 in0.0 mm 0.00 in0.0 mm
09:34 AM 69.8°F21.0°C 52.3°F11.3°C 54% 8.3 mph SE13.4 kmh SE 24.4 mph39.3 kmh 30.01 in1016.3 mb 0.00 in0.0 mm 0.00 in0.0 mm 0.00 in0.0 mm
09:39 AM 71.2°F21.8°C 53.8°F12.1°C 54% 9.2 mph SE14.8 kmh SE 17.4 mph28.0 kmh 30.01 in1016.3 mb 0.00 in0.0 mm 0.00 in0.0 mm 0.00 in0.0 mm
09:45 AM 70.0°F21.1°C 52.5°F11.4°C 54% 15.2 mph E24.5 kmh E 20.6 mph33.2 kmh 30.00 in1015.9 mb 0.00 in0.0 mm 0.00 in0.0 mm 0.00 in0.0 mm
09:50 AM 70.2°F21.2°C 52.7°F11.5°C 54% 9.8 mph SE15.8 kmh SE 20.6 mph33.2 kmh 30.01 in1016.3 mb 0.00 in0.0 mm 0.00 in0.0 mm 0.00 in0.0 mm
09:55 AM 70.2°F21.2°C 52.7°F11.5°C 54% 9.8 mph SE15.8 kmh SE 15.2 mph24.5 kmh 30.01 in1016.3 mb 0.00 in0.0 mm 0.00 in0.0 mm 0.00 in0.0 mm
10:00 AM 70.7°F21.5°C 52.7°F11.5°C 53% 13.0 mph SE20.9 kmh SE 22.8 mph36.7 kmh 30.02 in1016.6 mb 0.00 in0.0 mm 0.00 in0.0 mm 0.00 in0.0 mm
10:05 AM 71.2°F21.8°C 53.2°F11.8°C 53% 9.8 mph SE15.8 kmh SE 19.7 mph31.7 kmh 30.02 in1016.6 mb 0.00 in0.0 mm 0.00 in0.0 mm 0.00 in0.0 mm
10:11 AM 71.4°F21.9°C 52.9°F11.6°C 52% 9.8 mph NE15.8 kmh NE 21.3 mph34.3 kmh 30.01 in1016.3 mb 0.00 in0.0 mm 0.00 in0.0 mm 0.00 in0.0 mm
10:16 AM 72.3°F22.4°C 53.8°F12.1°C 52% 13.0 mph SE20.9 kmh SE 24.4 mph39.3 kmh 30.01 in1016.3 mb 0.00 in0.0 mm 0.00 in0.0 mm 0.00 in0.0 mm
10:21 AM 72.0°F22.2°C 53.4°F11.9°C 52% 13.0 mph SE20.9 kmh SE 21.3 mph34.3 kmh 30.01 in1016.3 mb 0.00 in0.0 mm 0.00 in0.0 mm 0.00 in0.0 mm
10:26 AM 71.6°F22.0°C 52.5°F11.4°C 51% 8.3 mph SE13.4 kmh SE 27.3 mph43.9 kmh 30.00 in1015.9 mb 0.00 in0.0 mm 0.00 in0.0 mm 0.00 in0.0 mm
10:31 AM 72.7°F22.6°C 53.4°F11.9°C 51% 6.9 mph SE11.1 kmh SE 19.0 mph30.6 kmh 30.00 in1015.9 mb 0.00 in0.0 mm 0.00 in0.0 mm 0.00 in0.0 mm
10:36 AM 72.5°F22.5°C 53.4°F11.9°C 51% 8.3 mph SE13.4 kmh SE 21.3 mph34.3 kmh 30.00 in1015.9 mb 0.00 in0.0 mm 0.00 in0.0 mm 0.00 in0.0 mm
10:42 AM 73.2°F22.9°C 54.0°F12.2°C 51% 9.2 mph E14.8 kmh E 14.5 mph23.3 kmh 29.99 in1015.6 mb 0.00 in0.0 mm 0.00 in0.0 mm 0.00 in0.0 mm
10:47 AM 73.4°F23.0°C 52.5°F11.4°C 48% 9.2 mph E14.8 kmh E 14.5 mph23.3 kmh 30.00 in1015.9 mb 0.00 in0.0 mm 0.00 in0.0 mm 0.00 in0.0 mm
10:52 AM 72.5°F22.5°C 54.0°F12.2°C 52% 10.7 mph NE17.2 kmh NE 18.3 mph29.5 kmh 30.00 in1015.9 mb 0.00 in0.0 mm 0.00 in0.0 mm 0.00 in0.0 mm
10:57 AM 72.7°F22.6°C 54.0°F12.2°C 52% 10.7 mph E17.2 kmh E 17.4 mph28.0 kmh 30.01 in1016.3 mb 0.00 in0.0 mm 0.00 in0.0 mm 0.00 in0.0 mm
11:02 AM 72.9°F22.7°C 54.1°F12.3°C 52% 6.9 mph E11.1 kmh E 15.9 mph25.6 kmh 30.00 in1015.9 mb 0.00 in0.0 mm 0.00 in0.0 mm 0.00 in0.0 mm
11:07 AM 72.9°F22.7°C 53.1°F11.7°C 50% 8.3 mph E13.4 kmh E 17.4 mph28.0 kmh 30.00 in1015.9 mb 0.00 in0.0 mm 0.00 in0.0 mm 0.00 in0.0 mm
11:13 AM 72.0°F22.2°C 52.3°F11.3°C 50% 9.2 mph E14.8 kmh E 21.3 mph34.3 kmh 30.01 in1016.3 mb 0.00 in0.0 mm 0.00 in0.0 mm 0.00 in0.0 mm
11:18 AM 71.8°F22.1°C 52.7°F11.5°C 51% 10.7 mph NE17.2 kmh NE 19.7 mph31.7 kmh 30.00 in1015.9 mb 0.00 in0.0 mm 0.00 in0.0 mm 0.00 in0.0 mm
11:23 AM 71.2°F21.8°C 51.6°F10.9°C 50% 9.8 mph E15.8 kmh E 22.1 mph35.6 kmh 30.00 in1015.9 mb 0.00 in0.0 mm 0.00 in0.0 mm 0.00 in0.0 mm
11:28 AM 71.2°F21.8°C 52.2°F11.2°C 51% 7.6 mph SSE12.2 kmh SSE 17.4 mph28.0 kmh 30.00 in1015.9 mb 0.00 in0.0 mm 0.00 in0.0 mm 0.00 in0.0 mm
11:33 AM 71.8°F22.1°C 53.2°F11.8°C 52% 10.7 mph SE17.2 kmh SE 18.3 mph29.5 kmh 30.00 in1015.9 mb 0.00 in0.0 mm 0.00 in0.0 mm 0.00 in0.0 mm
11:38 AM 72.0°F22.2°C 52.9°F11.6°C 51% 9.2 mph E14.8 kmh E 19.7 mph31.7 kmh 30.01 in1016.3 mb 0.00 in0.0 mm 0.00 in0.0 mm 0.00 in0.0 mm
11:44 AM 71.8°F22.1°C 52.2°F11.2°C 50% 8.3 mph SSE13.4 kmh SSE 18.3 mph29.5 kmh 30.01 in1016.3 mb 0.00 in0.0 mm 0.00 in0.0 mm 0.00 in0.0 mm
11:49 AM 71.8°F22.1°C 51.6°F10.9°C 49% 8.3 mph ESE13.4 kmh ESE 19.7 mph31.7 kmh 30.01 in1016.3 mb 0.00 in0.0 mm 0.00 in0.0 mm 0.00 in0.0 mm
11:54 AM 72.0°F22.2°C 52.3°F11.3°C 50% 7.6 mph ESE12.2 kmh ESE 15.9 mph25.6 kmh 30.01 in1016.3 mb 0.00 in0.0 mm 0.00 in0.0 mm 0.00 in0.0 mm
11:59 AM 72.7°F22.6°C 52.9°F11.6°C 50% 9.8 mph E15.8 kmh E 12.1 mph19.5 kmh 30.02 in1016.6 mb 0.00 in0.0 mm 0.00 in0.0 mm 0.00 in0.0 mm
12:04 PM 72.9°F22.7°C 52.5°F11.4°C 49% 6.9 mph E11.1 kmh E 15.9 mph25.6 kmh 30.02 in1016.6 mb 0.00 in0.0 mm 0.00 in0.0 mm 0.00 in0.0 mm
12:09 PM 73.4°F23.0°C 53.1°F11.7°C 49% 8.3 mph E13.4 kmh E 14.5 mph23.3 kmh 30.03 in1016.9 mb 0.00 in0.0 mm 0.00 in0.0 mm 0.00 in0.0 mm
12:15 PM 73.8°F23.2°C 52.9°F11.6°C 48% 6.0 mph SE9.7 kmh SE 16.8 mph27.0 kmh 30.03 in1016.9 mb 0.00 in0.0 mm 0.00 in0.0 mm 0.00 in0.0 mm
12:20 PM 73.6°F23.1°C 52.2°F11.2°C 47% 6.9 mph E11.1 kmh E 15.9 mph25.6 kmh 30.03 in1016.9 mb 0.00 in0.0 mm 0.00 in0.0 mm 0.00 in0.0 mm
12:25 PM 73.8°F23.2°C 52.3°F11.3°C 47% 9.8 mph E15.8 kmh E 17.4 mph28.0 kmh 30.03 in1016.9 mb 0.00 in0.0 mm 0.00 in0.0 mm 0.00 in0.0 mm
12:30 PM 72.7°F22.6°C 51.8°F11.0°C 48% 4.5 mph NE7.2 kmh NE 14.5 mph23.3 kmh 30.04 in1017.3 mb 0.00 in0.0 mm 0.00 in0.0 mm 0.00 in0.0 mm
12:35 PM 72.9°F22.7°C 52.5°F11.4°C 49% 6.9 mph E11.1 kmh E 13.0 mph20.9 kmh 30.03 in1016.9 mb 0.00 in0.0 mm 0.00 in0.0 mm 0.00 in0.0 mm
12:40 PM 72.1°F22.3°C 52.0°F11.1°C 49% 6.0 mph SE9.7 kmh SE 17.4 mph28.0 kmh 30.03 in1016.9 mb 0.00 in0.0 mm 0.00 in0.0 mm 0.00 in0.0 mm
12:46 PM 72.3°F22.4°C 52.7°F11.5°C 50% 9.2 mph SE14.8 kmh SE 13.0 mph20.9 kmh 30.03 in1016.9 mb 0.00 in0.0 mm 0.00 in0.0 mm 0.00 in0.0 mm
12:51 PM 72.1°F22.3°C 52.5°F11.4°C 50% 9.8 mph E15.8 kmh E 15.9 mph25.6 kmh 30.03 in1016.9 mb 0.00 in0.0 mm 0.00 in0.0 mm 0.00 in0.0 mm
12:56 PM 72.1°F22.3°C 53.1°F11.7°C 51% 7.6 mph E12.2 kmh E 13.0 mph20.9 kmh 30.03 in1016.9 mb 0.00 in0.0 mm 0.00 in0.0 mm 0.00 in0.0 mm
01:01 PM 72.3°F22.4°C 53.2°F11.8°C 51% 4.5 mph NE7.2 kmh NE 10.7 mph17.2 kmh 30.03 in1016.9 mb 0.00 in0.0 mm 0.00 in0.0 mm 0.00 in0.0 mm
01:06 PM 72.1°F22.3°C 52.0°F11.1°C 49% 6.0 mph 9.7 kmh 15.9 mph25.6 kmh 30.03 in1016.9 mb 0.00 in0.0 mm 0.00 in0.0 mm 0.00 in0.0 mm
01:11 PM 71.6°F22.0°C 50.9°F10.5°C 48% 5.4 mph E8.7 kmh E 15.9 mph25.6 kmh 30.03 in1016.9 mb 0.00 in0.0 mm 0.00 in0.0 mm 0.00 in0.0 mm
01:17 PM 71.6°F22.0°C 51.4°F10.8°C 49% 6.0 mph SE9.7 kmh SE 12.1 mph19.5 kmh 30.03 in1016.9 mb 0.00 in0.0 mm 0.00 in0.0 mm 0.00 in0.0 mm
01:22 PM 71.4°F21.9°C 51.3°F10.7°C 49% 6.0 mph SE9.7 kmh SE 12.1 mph19.5 kmh 30.03 in1016.9 mb 0.00 in0.0 mm 0.00 in0.0 mm 0.00 in0.0 mm
01:27 PM 71.4°F21.9°C 51.8°F11.0°C 50% 8.3 mph E13.4 kmh E 13.0 mph20.9 kmh 30.03 in1016.9 mb 0.00 in0.0 mm 0.00 in0.0 mm 0.00 in0.0 mm
01:32 PM 71.1°F21.7°C 51.4°F10.8°C 50% 6.0 mph SE9.7 kmh SE 12.1 mph19.5 kmh 30.04 in1017.3 mb 0.00 in0.0 mm 0.00 in0.0 mm 0.00 in0.0 mm
01:37 PM 71.2°F21.8°C 52.2°F11.2°C 51% 6.0 mph E9.7 kmh E 9.8 mph15.8 kmh 30.04 in1017.3 mb 0.00 in0.0 mm 0.00 in0.0 mm 0.00 in0.0 mm
01:42 PM 71.2°F21.8°C 52.2°F11.2°C 51% 3.8 mph S6.1 kmh S 8.3 mph13.4 kmh 30.05 in1017.6 mb 0.00 in0.0 mm 0.00 in0.0 mm 0.00 in0.0 mm
01:48 PM 71.4°F21.9°C 52.3°F11.3°C 51% 6.0 mph SE9.7 kmh SE 8.3 mph13.4 kmh 30.04 in1017.3 mb 0.00 in0.0 mm 0.00 in0.0 mm 0.00 in0.0 mm
01:53 PM 71.4°F21.9°C 51.8°F11.0°C 50% 4.5 mph SE7.2 kmh SE 10.7 mph17.2 kmh 30.05 in1017.6 mb 0.00 in0.0 mm 0.00 in0.0 mm 0.00 in0.0 mm
01:58 PM 71.4°F21.9°C 51.8°F11.0°C 50% 8.3 mph SE13.4 kmh SE 11.4 mph18.3 kmh 30.05 in1017.6 mb 0.00 in0.0 mm 0.00 in0.0 mm 0.00 in0.0 mm
02:03 PM 71.4°F21.9°C 51.8°F11.0°C 50% 3.8 mph SE6.1 kmh SE 11.4 mph18.3 kmh 30.05 in1017.6 mb 0.00 in0.0 mm 0.00 in0.0 mm 0.00 in0.0 mm
02:08 PM 71.6°F22.0°C 52.5°F11.4°C 51% 4.5 mph S7.2 kmh S 9.8 mph15.8 kmh 30.05 in1017.6 mb 0.00 in0.0 mm 0.00 in0.0 mm 0.00 in0.0 mm
02:13 PM 71.4°F21.9°C 51.8°F11.0°C 50% 4.5 mph NE7.2 kmh NE 10.7 mph17.2 kmh 30.05 in1017.6 mb 0.00 in0.0 mm 0.00 in0.0 mm 0.00 in0.0 mm
02:19 PM 71.2°F21.8°C 51.6°F10.9°C 50% 6.9 mph SE11.1 kmh SE 12.1 mph19.5 kmh 30.05 in1017.6 mb 0.00 in0.0 mm 0.00 in0.0 mm 0.00 in0.0 mm
02:24 PM 71.2°F21.8°C 52.2°F11.2°C 51% 4.5 mph SE7.2 kmh SE 12.1 mph19.5 kmh 30.05 in1017.6 mb 0.00 in0.0 mm 0.00 in0.0 mm 0.00 in0.0 mm
02:29 PM 71.4°F21.9°C 52.3°F11.3°C 51% 6.0 mph SE9.7 kmh SE 10.7 mph17.2 kmh 30.05 in1017.6 mb 0.00 in0.0 mm 0.00 in0.0 mm 0.00 in0.0 mm
02:34 PM 71.6°F22.0°C 53.1°F11.7°C 52% 6.0 mph SE9.7 kmh SE 12.1 mph19.5 kmh 30.05 in1017.6 mb 0.00 in0.0 mm 0.00 in0.0 mm 0.00 in0.0 mm
02:39 PM 72.0°F22.2°C 52.9°F11.6°C 51% 4.5 mph E7.2 kmh E 11.4 mph18.3 kmh 30.05 in1017.6 mb 0.00 in0.0 mm 0.00 in0.0 mm 0.00 in0.0 mm
02:44 PM 72.5°F22.5°C 53.4°F11.9°C 51% 8.3 mph SE13.4 kmh SE 14.5 mph23.3 kmh 30.05 in1017.6 mb 0.00 in0.0 mm 0.00 in0.0 mm 0.00 in0.0 mm
02:50 PM 72.7°F22.6°C 53.4°F11.9°C 51% 6.9 mph S11.1 kmh S 14.5 mph23.3 kmh 30.04 in1017.3 mb 0.00 in0.0 mm 0.00 in0.0 mm 0.00 in0.0 mm
02:55 PM 73.0°F22.8°C 53.8°F12.1°C 51% 9.8 mph SSE15.8 kmh SSE 14.5 mph23.3 kmh 30.05 in1017.6 mb 0.00 in0.0 mm 0.00 in0.0 mm 0.00 in0.0 mm
03:00 PM 73.0°F22.8°C 53.2°F11.8°C 50% 4.5 mph SSE7.2 kmh SSE 15.2 mph24.5 kmh 30.04 in1017.3 mb 0.00 in0.0 mm 0.00 in0.0 mm 0.00 in0.0 mm
03:05 PM 73.2°F22.9°C 53.4°F11.9°C 50% 6.9 mph E11.1 kmh E 14.5 mph23.3 kmh 30.04 in1017.3 mb 0.00 in0.0 mm 0.00 in0.0 mm 0.00 in0.0 mm
03:10 PM 73.6°F23.1°C 53.2°F11.8°C 49% 5.4 mph S8.7 kmh S 16.8 mph27.0 kmh 30.04 in1017.3 mb 0.00 in0.0 mm 0.00 in0.0 mm 0.00 in0.0 mm
03:15 PM 73.4°F23.0°C 52.5°F11.4°C 48% 6.0 mph E9.7 kmh E 16.8 mph27.0 kmh 30.05 in1017.6 mb 0.00 in0.0 mm 0.00 in0.0 mm 0.00 in0.0 mm
03:21 PM 73.2°F22.9°C 52.9°F11.6°C 49% 7.6 mph SE12.2 kmh SE 15.9 mph25.6 kmh 30.05 in1017.6 mb 0.00 in0.0 mm 0.00 in0.0 mm 0.00 in0.0 mm
03:26 PM 73.4°F23.0°C 52.5°F11.4°C 48% 6.0 mph S9.7 kmh S 15.9 mph25.6 kmh 30.05 in1017.6 mb 0.00 in0.0 mm 0.00 in0.0 mm 0.00 in0.0 mm
03:31 PM 73.0°F22.8°C 52.7°F11.5°C 49% 9.2 mph S14.8 kmh S 17.4 mph28.0 kmh 30.05 in1017.6 mb 0.00 in0.0 mm 0.00 in0.0 mm 0.00 in0.0 mm
03:36 PM 72.9°F22.7°C 52.5°F11.4°C 49% 4.5 mph SSE7.2 kmh SSE 12.1 mph19.5 kmh 30.05 in1017.6 mb 0.00 in0.0 mm 0.00 in0.0 mm 0.00 in0.0 mm
03:41 PM 73.0°F22.8°C 52.7°F11.5°C 49% 6.0 mph SE9.7 kmh SE 14.5 mph23.3 kmh 30.05 in1017.6 mb 0.00 in0.0 mm 0.00 in0.0 mm 0.00 in0.0 mm
03:47 PM 72.7°F22.6°C 52.3°F11.3°C 49% 9.2 mph SE14.8 kmh SE 14.5 mph23.3 kmh 30.04 in1017.3 mb 0.00 in0.0 mm 0.00 in0.0 mm 0.00 in0.0 mm
03:52 PM 72.1°F22.3°C 52.0°F11.1°C 49% 9.2 mph WSW14.8 kmh WSW 16.8 mph27.0 kmh 30.04 in1017.3 mb 0.00 in0.0 mm 0.00 in0.0 mm 0.00 in0.0 mm
03:57 PM 72.5°F22.5°C 51.6°F10.9°C 48% 8.3 mph SE13.4 kmh SE 16.8 mph27.0 kmh 30.05 in1017.6 mb 0.00 in0.0 mm 0.00 in0.0 mm 0.00 in0.0 mm
04:02 PM 72.3°F22.4°C 51.4°F10.8°C 48% 8.3 mph S13.4 kmh S 14.5 mph23.3 kmh 30.05 in1017.6 mb 0.00 in0.0 mm 0.00 in0.0 mm 0.00 in0.0 mm
04:07 PM 73.4°F23.0°C 52.5°F11.4°C 48% 6.0 mph SE9.7 kmh SE 13.0 mph20.9 kmh 30.05 in1017.6 mb 0.00 in0.0 mm 0.00 in0.0 mm 0.00 in0.0 mm
04:12 PM 73.2°F22.9°C 52.3°F11.3°C 48% 6.9 mph E11.1 kmh E 15.2 mph24.5 kmh 30.04 in1017.3 mb 0.00 in0.0 mm 0.00 in0.0 mm 0.00 in0.0 mm
04:18 PM 72.7°F22.6°C 52.3°F11.3°C 49% 5.4 mph SE8.7 kmh SE 14.5 mph23.3 kmh 30.05 in1017.6 mb 0.00 in0.0 mm 0.00 in0.0 mm 0.00 in0.0 mm
04:23 PM 72.9°F22.7°C 52.5°F11.4°C 49% 7.6 mph SE12.2 kmh SE 15.9 mph25.6 kmh 30.05 in1017.6 mb 0.00 in0.0 mm 0.00 in0.0 mm 0.00 in0.0 mm
04:28 PM 72.1°F22.3°C 52.0°F11.1°C 49% 4.5 mph SE7.2 kmh SE 14.5 mph23.3 kmh 30.04 in1017.3 mb 0.00 in0.0 mm 0.00 in0.0 mm 0.00 in0.0 mm
04:33 PM 72.5°F22.5°C 52.3°F11.3°C 49% 8.3 mph SSW13.4 kmh SSW 13.6 mph21.9 kmh 30.04 in1017.3 mb 0.00 in0.0 mm 0.00 in0.0 mm 0.00 in0.0 mm
04:38 PM 72.9°F22.7°C 52.5°F11.4°C 49% 9.8 mph E15.8 kmh E 15.9 mph25.6 kmh 30.04 in1017.3 mb 0.00 in0.0 mm 0.00 in0.0 mm 0.00 in0.0 mm
04:43 PM 72.3°F22.4°C 52.2°F11.2°C 49% 5.4 mph E8.7 kmh E 18.3 mph29.5 kmh 30.04 in1017.3 mb 0.00 in0.0 mm 0.00 in0.0 mm 0.00 in0.0 mm
04:49 PM 73.0°F22.8°C 53.2°F11.8°C 50% 4.5 mph SE7.2 kmh SE 13.6 mph21.9 kmh 30.04 in1017.3 mb 0.00 in0.0 mm 0.00 in0.0 mm 0.00 in0.0 mm
04:54 PM 74.7°F23.7°C 53.6°F12.0°C 48% 5.4 mph S8.7 kmh S 11.4 mph18.3 kmh 30.04 in1017.3 mb 0.00 in0.0 mm 0.00 in0.0 mm 0.00 in0.0 mm
04:59 PM 74.7°F23.7°C 53.1°F11.7°C 47% 8.3 mph SE13.4 kmh SE 16.8 mph27.0 kmh 30.04 in1017.3 mb 0.00 in0.0 mm 0.00 in0.0 mm 0.00 in0.0 mm
05:04 PM 75.2°F24.0°C 53.1°F11.7°C 46% 7.6 mph SE12.2 kmh SE 13.0 mph20.9 kmh 30.04 in1017.3 mb 0.00 in0.0 mm 0.00 in0.0 mm 0.00 in0.0 mm
05:09 PM 74.3°F23.5°C 53.4°F11.9°C 48% 9.2 mph SE14.8 kmh SE 15.2 mph24.5 kmh 30.03 in1016.9 mb 0.00 in0.0 mm 0.00 in0.0 mm 0.00 in0.0 mm
05:14 PM 73.0°F22.8°C 52.7°F11.5°C 49% 6.0 mph S9.7 kmh S 15.9 mph25.6 kmh 30.04 in1017.3 mb 0.00 in0.0 mm 0.00 in0.0 mm 0.00 in0.0 mm
05:20 PM 72.9°F22.7°C 53.1°F11.7°C 50% 13.0 mph SE20.9 kmh SE 14.5 mph23.3 kmh 30.04 in1017.3 mb 0.00 in0.0 mm 0.00 in0.0 mm 0.00 in0.0 mm
05:25 PM 72.1°F22.3°C 52.5°F11.4°C 50% 4.5 mph SE7.2 kmh SE 15.9 mph25.6 kmh 30.03 in1016.9 mb 0.00 in0.0 mm 0.00 in0.0 mm 0.00 in0.0 mm
05:30 PM 72.5°F22.5°C 52.9°F11.6°C 50% 9.8 mph ENE15.8 kmh ENE 14.5 mph23.3 kmh 30.03 in1016.9 mb 0.00 in0.0 mm 0.00 in0.0 mm 0.00 in0.0 mm
05:35 PM 72.1°F22.3°C 52.5°F11.4°C 50% 7.6 mph SE12.2 kmh SE 14.5 mph23.3 kmh 30.03 in1016.9 mb 0.00 in0.0 mm 0.00 in0.0 mm 0.00 in0.0 mm
05:40 PM 72.0°F22.2°C 52.9°F11.6°C 51% 6.9 mph E11.1 kmh E 14.5 mph23.3 kmh 30.03 in1016.9 mb 0.00 in0.0 mm 0.00 in0.0 mm 0.00 in0.0 mm
05:45 PM 72.0°F22.2°C 52.9°F11.6°C 51% 6.9 mph S11.1 kmh S 14.5 mph23.3 kmh 30.02 in1016.6 mb 0.00 in0.0 mm 0.00 in0.0 mm 0.00 in0.0 mm
05:51 PM 71.8°F22.1°C 52.7°F11.5°C 51% 9.8 mph SE15.8 kmh SE 13.0 mph20.9 kmh 30.02 in1016.6 mb 0.00 in0.0 mm 0.00 in0.0 mm 0.00 in0.0 mm
05:56 PM 71.8°F22.1°C 53.2°F11.8°C 52% 3.8 mph SE6.1 kmh SE 12.1 mph19.5 kmh 30.02 in1016.6 mb 0.00 in0.0 mm 0.00 in0.0 mm 0.00 in0.0 mm
06:01 PM 72.0°F22.2°C 53.4°F11.9°C 52% 8.3 mph E13.4 kmh E 15.2 mph24.5 kmh 30.02 in1016.6 mb 0.00 in0.0 mm 0.00 in0.0 mm 0.00 in0.0 mm
06:06 PM 72.1°F22.3°C 53.1°F11.7°C 51% 7.6 mph E12.2 kmh E 14.5 mph23.3 kmh 30.03 in1016.9 mb 0.00 in0.0 mm 0.00 in0.0 mm 0.00 in0.0 mm
06:11 PM 73.4°F23.0°C 53.1°F11.7°C 49% 8.3 mph SE13.4 kmh SE 14.5 mph23.3 kmh 30.02 in1016.6 mb 0.00 in0.0 mm 0.00 in0.0 mm 0.00 in0.0 mm
06:16 PM 73.4°F23.0°C 52.5°F11.4°C 48% 6.0 mph SSE9.7 kmh SSE 15.2 mph24.5 kmh 30.03 in1016.9 mb 0.00 in0.0 mm 0.00 in0.0 mm 0.00 in0.0 mm
06:22 PM 72.9°F22.7°C 52.5°F11.4°C 49% 9.8 mph E15.8 kmh E 17.4 mph28.0 kmh 30.03 in1016.9 mb 0.00 in0.0 mm 0.00 in0.0 mm 0.00 in0.0 mm
06:27 PM 73.4°F23.0°C 52.5°F11.4°C 48% 9.8 mph S15.8 kmh S 16.8 mph27.0 kmh 30.03 in1016.9 mb 0.00 in0.0 mm 0.00 in0.0 mm 0.00 in0.0 mm
06:32 PM 73.8°F23.2°C 52.3°F11.3°C 47% 5.4 mph SE8.7 kmh SE 16.8 mph27.0 kmh 30.03 in1016.9 mb 0.00 in0.0 mm 0.00 in0.0 mm 0.00 in0.0 mm
06:37 PM 73.4°F23.0°C 52.0°F11.1°C 47% 7.6 mph SE12.2 kmh SE 15.9 mph25.6 kmh 30.03 in1016.9 mb 0.00 in0.0 mm 0.00 in0.0 mm 0.00 in0.0 mm
06:42 PM 73.6°F23.1°C 52.2°F11.2°C 47% 4.5 mph E7.2 kmh E 13.6 mph21.9 kmh 30.03 in1016.9 mb 0.00 in0.0 mm 0.00 in0.0 mm 0.00 in0.0 mm
06:47 PM 73.2°F22.9°C 52.3°F11.3°C 48% 9.2 mph E14.8 kmh E 13.0 mph20.9 kmh 30.03 in1016.9 mb 0.00 in0.0 mm 0.00 in0.0 mm 0.00 in0.0 mm
06:53 PM 72.9°F22.7°C 52.5°F11.4°C 49% 15.2 mph SE24.5 kmh SE 19.7 mph31.7 kmh 30.03 in1016.9 mb 0.00 in0.0 mm 0.00 in0.0 mm 0.00 in0.0 mm
06:58 PM 72.5°F22.5°C 52.3°F11.3°C 49% 10.7 mph SE17.2 kmh SE 19.7 mph31.7 kmh 30.03 in1016.9 mb 0.00 in0.0 mm 0.00 in0.0 mm 0.00 in0.0 mm
07:03 PM 71.6°F22.0°C 52.0°F11.1°C 50% 6.0 mph E9.7 kmh E 15.9 mph25.6 kmh 30.04 in1017.3 mb 0.00 in0.0 mm 0.00 in0.0 mm 0.00 in0.0 mm
07:08 PM 71.2°F21.8°C 51.6°F10.9°C 50% 6.0 mph NE9.7 kmh NE 12.1 mph19.5 kmh 30.04 in1017.3 mb 0.00 in0.0 mm 0.00 in0.0 mm 0.00 in0.0 mm
07:13 PM 71.1°F21.7°C 52.0°F11.1°C 51% 10.7 mph ESE17.2 kmh ESE 16.8 mph27.0 kmh 30.04 in1017.3 mb 0.00 in0.0 mm 0.00 in0.0 mm 0.00 in0.0 mm
07:18 PM 71.2°F21.8°C 52.2°F11.2°C 51% 7.6 mph SE12.2 kmh SE 15.2 mph24.5 kmh 30.04 in1017.3 mb 0.00 in0.0 mm 0.00 in0.0 mm 0.00 in0.0 mm
07:24 PM 70.9°F21.6°C 51.8°F11.0°C 51% 11.4 mph E18.3 kmh E 17.4 mph28.0 kmh 30.04 in1017.3 mb 0.00 in0.0 mm 0.00 in0.0 mm 0.00 in0.0 mm
07:29 PM 70.3°F21.3°C 51.8°F11.0°C 52% 6.0 mph SE9.7 kmh SE 17.4 mph28.0 kmh 30.04 in1017.3 mb 0.00 in0.0 mm 0.00 in0.0 mm 0.00 in0.0 mm
07:34 PM 69.8°F21.0°C 51.4°F10.8°C 52% 5.4 mph SE8.7 kmh SE 14.5 mph23.3 kmh 30.04 in1017.3 mb 0.00 in0.0 mm 0.00 in0.0 mm 0.00 in0.0 mm
07:39 PM 69.4°F20.8°C 51.6°F10.9°C 53% 4.5 mph E7.2 kmh E 12.1 mph19.5 kmh 30.04 in1017.3 mb 0.00 in0.0 mm 0.00 in0.0 mm 0.00 in0.0 mm
07:44 PM 69.4°F20.8°C 52.2°F11.2°C 54% 4.5 mph E7.2 kmh E 12.1 mph19.5 kmh 30.05 in1017.6 mb 0.00 in0.0 mm 0.00 in0.0 mm 0.00 in0.0 mm
07:49 PM 68.9°F20.5°C 51.6°F10.9°C 54% 7.6 mph E12.2 kmh E 13.6 mph21.9 kmh 30.05 in1017.6 mb 0.00 in0.0 mm 0.00 in0.0 mm 0.00 in0.0 mm
07:55 PM 68.7°F20.4°C 52.0°F11.1°C 55% 8.3 mph E13.4 kmh E 13.6 mph21.9 kmh 30.05 in1017.6 mb 0.00 in0.0 mm 0.00 in0.0 mm 0.00 in0.0 mm
08:00 PM 68.4°F20.2°C 51.6°F10.9°C 55% 5.4 mph SE8.7 kmh SE 12.1 mph19.5 kmh 30.06 in1017.9 mb 0.00 in0.0 mm 0.00 in0.0 mm 0.00 in0.0 mm
08:05 PM 68.2°F20.1°C 51.8°F11.0°C 56% 3.8 mph NE6.1 kmh NE 9.8 mph15.8 kmh 30.06 in1017.9 mb 0.00 in0.0 mm 0.00 in0.0 mm 0.00 in0.0 mm
08:10 PM 67.8°F19.9°C 52.0°F11.1°C 57% 1.6 mph SE2.6 kmh SE 10.7 mph17.2 kmh 30.06 in1017.9 mb 0.00 in0.0 mm 0.00 in0.0 mm 0.00 in0.0 mm
08:15 PM 67.6°F19.8°C 51.8°F11.0°C 57% 3.1 mph SE5.0 kmh SE 9.2 mph14.8 kmh 30.06 in1017.9 mb 0.00 in0.0 mm 0.00 in0.0 mm 0.00 in0.0 mm
08:20 PM 67.5°F19.7°C 51.6°F10.9°C 57% 5.4 mph SE8.7 kmh SE 8.3 mph13.4 kmh 30.06 in1017.9 mb 0.00 in0.0 mm 0.00 in0.0 mm 0.00 in0.0 mm
08:26 PM 67.3°F19.6°C 51.4°F10.8°C 57% 5.4 mph SE8.7 kmh SE 9.8 mph15.8 kmh 30.06 in1017.9 mb 0.00 in0.0 mm 0.00 in0.0 mm 0.00 in0.0 mm
08:31 PM 66.9°F19.4°C 51.6°F10.9°C 58% 5.4 mph SE8.7 kmh SE 9.8 mph15.8 kmh 30.06 in1017.9 mb 0.00 in0.0 mm 0.00 in0.0 mm 0.00 in0.0 mm
08:36 PM 66.7°F19.3°C 51.4°F10.8°C 58% 4.5 mph SE7.2 kmh SE 11.4 mph18.3 kmh 30.06 in1017.9 mb 0.00 in0.0 mm 0.00 in0.0 mm 0.00 in0.0 mm
08:41 PM 66.6°F19.2°C 51.3°F10.7°C 58% 5.4 mph SE8.7 kmh SE 13.0 mph20.9 kmh 30.06 in1017.9 mb 0.00 in0.0 mm 0.00 in0.0 mm 0.00 in0.0 mm
08:46 PM 66.6°F19.2°C 51.3°F10.7°C 58% 4.5 mph ESE7.2 kmh ESE 11.4 mph18.3 kmh 30.07 in1018.3 mb 0.00 in0.0 mm 0.00 in0.0 mm 0.00 in0.0 mm
08:52 PM 66.4°F19.1°C 51.1°F10.6°C 58% 6.0 mph SE9.7 kmh SE 9.8 mph15.8 kmh 30.07 in1018.3 mb 0.00 in0.0 mm 0.00 in0.0 mm 0.00 in0.0 mm
08:57 PM 66.2°F19.0°C 50.5°F10.3°C 57% 4.5 mph SE7.2 kmh SE 10.7 mph17.2 kmh 30.07 in1018.3 mb 0.00 in0.0 mm 0.00 in0.0 mm 0.00 in0.0 mm
09:02 PM 66.0°F18.9°C 51.3°F10.7°C 59% 3.1 mph E5.0 kmh E 9.2 mph14.8 kmh 30.07 in1018.3 mb 0.00 in0.0 mm 0.00 in0.0 mm 0.00 in0.0 mm
09:07 PM 65.8°F18.8°C 51.1°F10.6°C 59% 6.9 mph SE11.1 kmh SE 11.4 mph18.3 kmh 30.07 in1018.3 mb 0.00 in0.0 mm 0.00 in0.0 mm 0.00 in0.0 mm
09:12 PM 65.7°F18.7°C 50.9°F10.5°C 59% 3.1 mph E5.0 kmh E 11.4 mph18.3 kmh 30.07 in1018.3 mb 0.00 in0.0 mm 0.00 in0.0 mm 0.00 in0.0 mm
09:17 PM 65.7°F18.7°C 50.9°F10.5°C 59% 7.6 mph SE12.2 kmh SE 12.1 mph19.5 kmh 30.08 in1018.6 mb 0.00 in0.0 mm 0.00 in0.0 mm 0.00 in0.0 mm
09:23 PM 65.5°F18.6°C 50.7°F10.4°C 59% 6.9 mph SE11.1 kmh SE 12.1 mph19.5 kmh 30.08 in1018.6 mb 0.00 in0.0 mm 0.00 in0.0 mm 0.00 in0.0 mm
09:28 PM 65.5°F18.6°C 50.7°F10.4°C 59% 6.9 mph NE11.1 kmh NE 12.1 mph19.5 kmh 30.08 in1018.6 mb 0.00 in0.0 mm 0.00 in0.0 mm 0.00 in0.0 mm
09:33 PM 65.5°F18.6°C 50.7°F10.4°C 59% 5.4 mph SE8.7 kmh SE 10.7 mph17.2 kmh 30.08 in1018.6 mb 0.00 in0.0 mm 0.00 in0.0 mm 0.00 in0.0 mm
09:38 PM 65.3°F18.5°C 50.5°F10.3°C 59% 8.3 mph NW13.4 kmh NW 11.4 mph18.3 kmh 30.09 in1019.0 mb 0.00 in0.0 mm 0.00 in0.0 mm 0.00 in0.0 mm
09:43 PM 65.1°F18.4°C 50.4°F10.2°C 59% 6.0 mph E9.7 kmh E 11.4 mph18.3 kmh 30.08 in1018.6 mb 0.00 in0.0 mm 0.00 in0.0 mm 0.00 in0.0 mm
09:48 PM 64.9°F18.3°C 50.2°F10.1°C 59% 4.5 mph E7.2 kmh E 11.4 mph18.3 kmh 30.09 in1019.0 mb 0.00 in0.0 mm 0.00 in0.0 mm 0.00 in0.0 mm
09:54 PM 64.9°F18.3°C 50.2°F10.1°C 59% 8.3 mph E13.4 kmh E 15.2 mph24.5 kmh 30.09 in1019.0 mb 0.00 in0.0 mm 0.00 in0.0 mm 0.00 in0.0 mm
09:59 PM 64.9°F18.3°C 50.2°F10.1°C 59% 5.4 mph SE8.7 kmh SE 10.7 mph17.2 kmh 30.10 in1019.3 mb 0.00 in0.0 mm 0.00 in0.0 mm 0.00 in0.0 mm
10:04 PM 64.8°F18.2°C 50.2°F10.1°C 59% 6.0 mph E9.7 kmh E 12.1 mph19.5 kmh 30.10 in1019.3 mb 0.00 in0.0 mm 0.00 in0.0 mm 0.00 in0.0 mm
10:09 PM 64.9°F18.3°C 50.2°F10.1°C 59% 6.9 mph E11.1 kmh E 11.4 mph18.3 kmh 30.10 in1019.3 mb 0.00 in0.0 mm 0.00 in0.0 mm 0.00 in0.0 mm
10:14 PM 64.8°F18.2°C 50.2°F10.1°C 59% 6.0 mph SE9.7 kmh SE 11.4 mph18.3 kmh 30.10 in1019.3 mb 0.00 in0.0 mm 0.00 in0.0 mm 0.00 in0.0 mm
10:19 PM 64.8°F18.2°C 50.2°F10.1°C 59% 4.5 mph SE7.2 kmh SE 11.4 mph18.3 kmh 30.10 in1019.3 mb 0.00 in0.0 mm 0.00 in0.0 mm 0.00 in0.0 mm
10:25 PM 64.6°F18.1°C 50.0°F10.0°C 59% 4.5 mph SE7.2 kmh SE 9.8 mph15.8 kmh 30.10 in1019.3 mb 0.00 in0.0 mm 0.00 in0.0 mm 0.00 in0.0 mm
10:30 PM 64.6°F18.1°C 50.0°F10.0°C 59% 3.8 mph S6.1 kmh S 10.7 mph17.2 kmh 30.10 in1019.3 mb 0.00 in0.0 mm 0.00 in0.0 mm 0.00 in0.0 mm
10:35 PM 64.4°F18.0°C 49.8°F9.9°C 59% 3.1 mph NE5.0 kmh NE 11.4 mph18.3 kmh 30.11 in1019.6 mb 0.00 in0.0 mm 0.00 in0.0 mm 0.00 in0.0 mm
10:40 PM 64.2°F17.9°C 50.0°F10.0°C 60% 5.4 mph SE8.7 kmh SE 9.8 mph15.8 kmh 30.11 in1019.6 mb 0.00 in0.0 mm 0.00 in0.0 mm 0.00 in0.0 mm
10:45 PM 64.2°F17.9°C 50.0°F10.0°C 60% 1.6 mph SE2.6 kmh SE 8.3 mph13.4 kmh 30.12 in1020.0 mb 0.00 in0.0 mm 0.00 in0.0 mm 0.00 in0.0 mm
10:50 PM 64.2°F17.9°C 50.0°F10.0°C 60% 5.4 mph S8.7 kmh S 9.2 mph14.8 kmh 30.12 in1020.0 mb 0.00 in0.0 mm 0.00 in0.0 mm 0.00 in0.0 mm
10:56 PM 64.2°F17.9°C 50.0°F10.0°C 60% 5.4 mph S8.7 kmh S 8.3 mph13.4 kmh 30.13 in1020.3 mb 0.00 in0.0 mm 0.00 in0.0 mm 0.00 in0.0 mm
11:01 PM 64.0°F17.8°C 49.8°F9.9°C 60% 5.4 mph NE8.7 kmh NE 11.4 mph18.3 kmh 30.13 in1020.3 mb 0.00 in0.0 mm 0.00 in0.0 mm 0.00 in0.0 mm
11:06 PM 64.0°F17.8°C 49.8°F9.9°C 60% 5.4 mph SE8.7 kmh SE 9.2 mph14.8 kmh 30.13 in1020.3 mb 0.00 in0.0 mm 0.00 in0.0 mm 0.00 in0.0 mm
11:11 PM 63.9°F17.7°C 49.3°F9.6°C 59% 8.3 mph SE13.4 kmh SE 15.9 mph25.6 kmh 30.12 in1020.0 mb 0.00 in0.0 mm 0.00 in0.0 mm 0.00 in0.0 mm
11:16 PM 63.5°F17.5°C 49.8°F9.9°C 61% 4.5 mph SE7.2 kmh SE 9.8 mph15.8 kmh 30.13 in1020.3 mb 0.00 in0.0 mm 0.00 in0.0 mm 0.00 in0.0 mm
11:21 PM 63.0°F17.2°C 49.8°F9.9°C 62% 3.8 mph E6.1 kmh E 9.8 mph15.8 kmh 30.13 in1020.3 mb 0.00 in0.0 mm 0.00 in0.0 mm 0.00 in0.0 mm
11:27 PM 62.6°F17.0°C 49.5°F9.7°C 62% 2.2 mph SE3.5 kmh SE 9.2 mph14.8 kmh 30.13 in1020.3 mb 0.00 in0.0 mm 0.00 in0.0 mm 0.00 in0.0 mm
11:32 PM 62.6°F17.0°C 49.8°F9.9°C 63% 6.0 mph E9.7 kmh E 9.2 mph14.8 kmh 30.13 in1020.3 mb 0.00 in0.0 mm 0.00 in0.0 mm 0.00 in0.0 mm
11:37 PM 62.6°F17.0°C 49.8°F9.9°C 63% 5.4 mph SSE8.7 kmh SSE 9.2 mph14.8 kmh 30.13 in1020.3 mb 0.00 in0.0 mm 0.00 in0.0 mm 0.00 in0.0 mm
11:42 PM 62.4°F16.9°C 49.3°F9.6°C 62% 1.6 mph SW2.6 kmh SW 12.1 mph19.5 kmh 30.14 in1020.7 mb 0.00 in0.0 mm 0.00 in0.0 mm 0.00 in0.0 mm
11:47 PM 62.2°F16.8°C 49.1°F9.5°C 62% 3.8 mph NW6.1 kmh NW 8.3 mph13.4 kmh 30.14 in1020.7 mb 0.00 in0.0 mm 0.00 in0.0 mm 0.00 in0.0 mm
11:52 PM 62.2°F16.8°C 49.1°F9.5°C 62% 3.1 mph ESE5.0 kmh ESE 8.3 mph13.4 kmh 30.14 in1020.7 mb 0.00 in0.0 mm 0.00 in0.0 mm 0.00 in0.0 mm
11:58 PM 62.2°F16.8°C 49.1°F9.5°C 62% 3.1 mph SE5.0 kmh SE 9.2 mph14.8 kmh 30.15 in1021.0 mb 0.00 in0.0 mm 0.00 in0.0 mm 0.00 in0.0 mm